createdAt,value
2023-05-18T00:01:14.992Z,102888.78
2023-05-18T00:03:42.155Z,102894.88
2023-05-18T00:06:11.420Z,102889.50
2023-05-18T00:08:38.704Z,102891.03
2023-05-18T00:11:06.182Z,102889.19
2023-05-18T00:13:33.169Z,102894.34
2023-05-18T00:16:00.580Z,102888.16
2023-05-18T00:18:28.118Z,102888.97
2023-05-18T00:20:59.213Z,102882.75
2023-05-18T00:23:30.745Z,102891.28
2023-05-18T00:25:58.979Z,102886.66
2023-05-18T00:28:29.367Z,102893.66
2023-05-18T00:30:56.752Z,102886.63
2023-05-18T00:33:23.472Z,102887.34
2023-05-18T00:35:50.028Z,102891.63
2023-05-18T00:38:16.750Z,102890.56
2023-05-18T00:40:43.687Z,102890.44
2023-05-18T00:43:10.221Z,102895.69
2023-05-18T00:45:36.845Z,102892.06
2023-05-18T00:48:03.697Z,102899.72
2023-05-18T00:50:30.539Z,102895.09
2023-05-18T00:52:57.212Z,102893.00
2023-05-18T00:55:23.928Z,102894.44
2023-05-18T00:57:50.687Z,102902.16
2023-05-18T01:00:20.696Z,102880.47
2023-05-18T01:02:47.506Z,102896.53
2023-05-18T01:05:14.464Z,102895.41
2023-05-18T01:07:44.857Z,102898.72
2023-05-18T01:10:13.367Z,102898.59
2023-05-18T01:13:02.814Z,102899.34
2023-05-18T01:15:37.307Z,102904.44
2023-05-18T01:18:29.054Z,102904.44
2023-05-18T01:21:24.364Z,102897.34
2023-05-18T01:24:25.570Z,102901.59
2023-05-18T01:26:57.370Z,102901.47
2023-05-18T01:29:27.148Z,102897.13
2023-05-18T01:31:53.814Z,102899.19
2023-05-18T01:34:20.405Z,102904.59
2023-05-18T01:36:46.946Z,102904.59
2023-05-18T01:39:14.301Z,102908.94
2023-05-18T01:42:03.705Z,102905.19
2023-05-18T01:44:53.389Z,102903.97
2023-05-18T01:47:19.896Z,102916.09
2023-05-18T01:50:05.139Z,102909.81
2023-05-18T01:52:42.953Z,102919.38
2023-05-18T01:55:10.693Z,102912.44
2023-05-18T01:57:39.500Z,102911.38
2023-05-18T02:00:08.047Z,102912.09
2023-05-18T02:02:35.131Z,102913.06
2023-05-18T02:05:02.572Z,102905.03
2023-05-18T02:07:29.152Z,102910.13
2023-05-18T02:09:56.004Z,102905.63
2023-05-18T02:12:22.634Z,102909.91
2023-05-18T02:14:49.087Z,102902.72
2023-05-18T02:17:17.410Z,102912.47
2023-05-18T02:19:43.821Z,102906.34
2023-05-18T02:22:10.455Z,102906.09
2023-05-18T02:24:36.897Z,102906.84
2023-05-18T02:27:05.097Z,102906.34
2023-05-18T02:29:31.585Z,102899.97
2023-05-18T02:31:58.071Z,102901.63
2023-05-18T02:34:24.762Z,102905.09
2023-05-18T02:36:57.796Z,102909.63
2023-05-18T02:39:25.568Z,102908.13
2023-05-18T02:41:51.948Z,102905.50
2023-05-18T02:44:18.419Z,102900.97
2023-05-18T02:46:44.893Z,102906.06
2023-05-18T02:49:11.823Z,102900.81
2023-05-18T02:51:38.608Z,102900.97
2023-05-18T02:54:05.096Z,102902.69
2023-05-18T02:56:32.807Z,102907.00
2023-05-18T02:59:00.864Z,102905.00
2023-05-18T03:01:27.541Z,102912.47
2023-05-18T03:03:57.738Z,102900.97
2023-05-18T03:06:33.470Z,102901.72
2023-05-18T03:09:00.156Z,102899.94
2023-05-18T03:11:26.990Z,102903.34
2023-05-18T03:13:53.454Z,102909.34
2023-05-18T03:16:20.047Z,102898.66
2023-05-18T03:18:46.866Z,102905.44
2023-05-18T03:21:16.688Z,102898.34
2023-05-18T03:23:43.140Z,102903.50
2023-05-18T03:26:11.715Z,102897.28
2023-05-18T03:28:38.904Z,102897.06
2023-05-18T03:31:05.960Z,102892.41
2023-05-18T03:33:32.485Z,102902.88
2023-05-18T03:36:04.049Z,102908.88
2023-05-18T03:38:30.603Z,102899.22
2023-05-18T03:40:57.066Z,102907.81
2023-05-18T03:43:26.235Z,102899.72
2023-05-18T03:45:53.563Z,102904.69
2023-05-18T03:48:20.950Z,102902.19
2023-05-18T03:50:48.796Z,102906.19
2023-05-18T03:53:18.951Z,102908.78
2023-05-18T03:55:46.282Z,102899.06
2023-05-18T03:58:13.207Z,102903.41
2023-05-18T04:00:39.809Z,102911.19
2023-05-18T04:03:08.172Z,102912.69
2023-05-18T04:05:34.756Z,102913.47
2023-05-18T04:08:01.332Z,102921.28
2023-05-18T04:10:27.940Z,102922.75
2023-05-18T04:12:54.518Z,102919.25
2023-05-18T04:15:21.209Z,102923.66
2023-05-18T04:17:51.106Z,102922.91
2023-05-18T04:20:18.511Z,102919.53
2023-05-18T04:22:48.926Z,102931.81
2023-05-18T04:25:16.627Z,102932.69
2023-05-18T04:27:45.242Z,102930.81
2023-05-18T04:30:14.974Z,102931.91
2023-05-18T04:32:43.122Z,102934.56
2023-05-18T04:35:11.547Z,102941.88
2023-05-18T04:37:41.227Z,102937.53
2023-05-18T04:40:13.635Z,102927.38
2023-05-18T04:42:45.615Z,102930.81
2023-05-18T04:45:15.734Z,102933.63
2023-05-18T04:47:43.105Z,102938.16
2023-05-18T04:50:09.945Z,102940.19
2023-05-18T04:52:39.754Z,102935.94
2023-05-18T04:55:06.843Z,102940.78
2023-05-18T04:57:33.301Z,102945.47
2023-05-18T04:59:59.752Z,102937.22
2023-05-18T05:02:26.311Z,102946.25
2023-05-18T05:04:52.862Z,102947.66
2023-05-18T05:07:19.286Z,102953.38
2023-05-18T05:09:45.718Z,102948.56
2023-05-18T05:12:12.159Z,102947.22
2023-05-18T05:14:38.606Z,102951.19
2023-05-18T05:17:05.302Z,102949.06
2023-05-18T05:19:31.758Z,102957.22
2023-05-18T05:21:58.326Z,102955.72
2023-05-18T05:24:24.840Z,102956.91
2023-05-18T05:26:51.299Z,102956.50
2023-05-18T05:29:17.846Z,102949.91
2023-05-18T05:31:47.581Z,102946.91
2023-05-18T05:34:14.239Z,102946.50
2023-05-18T05:36:41.174Z,102938.13
2023-05-18T05:39:07.845Z,102940.97
2023-05-18T05:41:34.276Z,102951.94
2023-05-18T05:44:00.768Z,102947.91
2023-05-18T05:46:27.234Z,102942.91
2023-05-18T05:48:53.832Z,102952.09
2023-05-18T05:51:20.358Z,102947.31
2023-05-18T05:53:47.561Z,102951.50
2023-05-18T05:56:16.445Z,102956.31
2023-05-18T05:58:43.079Z,102955.84
2023-05-18T06:01:09.610Z,102960.88
2023-05-18T06:03:37.200Z,102958.06
2023-05-18T06:06:03.974Z,102956.03
2023-05-18T06:08:30.883Z,102955.75
2023-05-18T06:10:57.377Z,102958.66
2023-05-18T06:13:23.841Z,102964.31
2023-05-18T06:15:50.524Z,102961.38
2023-05-18T06:18:17.060Z,102965.34
2023-05-18T06:20:43.626Z,102957.06
2023-05-18T06:23:10.020Z,102964.22
2023-05-18T06:25:36.557Z,102971.09
2023-05-18T06:28:03.123Z,102966.97
2023-05-18T06:30:32.757Z,102967.22
2023-05-18T06:32:59.438Z,102965.69
2023-05-18T06:35:26.064Z,102967.50
2023-05-18T06:37:52.660Z,102963.50
2023-05-18T06:40:19.117Z,102972.44
2023-05-18T06:42:46.074Z,102971.50
2023-05-18T06:45:12.624Z,102970.53
2023-05-18T06:47:39.133Z,102974.91
2023-05-18T06:50:06.028Z,102970.97
2023-05-18T06:52:32.585Z,102968.66
2023-05-18T06:55:01.280Z,102979.47
2023-05-18T06:57:27.906Z,102966.28
2023-05-18T06:59:56.443Z,102977.78
2023-05-18T07:02:23.281Z,102974.06
2023-05-18T07:04:52.228Z,102972.97
2023-05-18T07:07:18.752Z,102980.84
2023-05-18T07:09:45.744Z,102975.31
2023-05-18T07:12:14.473Z,102978.66
2023-05-18T07:14:40.927Z,102973.09
2023-05-18T07:17:07.483Z,102988.47
2023-05-18T07:19:38.166Z,102986.13
2023-05-18T07:22:04.763Z,102991.09
2023-05-18T07:24:31.380Z,102983.63
2023-05-18T07:27:00.682Z,102983.97
2023-05-18T07:29:27.536Z,102986.22
2023-05-18T07:31:54.054Z,102998.34
2023-05-18T07:34:20.689Z,102997.25
2023-05-18T07:36:47.157Z,103002.16
2023-05-18T07:39:19.657Z,102995.75
2023-05-18T07:41:47.283Z,103001.41
2023-05-18T07:44:14.326Z,102997.56
2023-05-18T07:46:41.381Z,103001.03
2023-05-18T07:49:07.885Z,102997.38
2023-05-18T07:51:42.339Z,102998.19
2023-05-18T07:54:09.101Z,103005.38
2023-05-18T07:56:39.428Z,103005.59
2023-05-18T07:59:06.027Z,103003.09
2023-05-18T08:01:32.741Z,103009.19
2023-05-18T08:03:59.453Z,103004.72
2023-05-18T08:06:26.133Z,103007.81
2023-05-18T08:08:52.777Z,103007.97
2023-05-18T08:11:19.249Z,103002.97
2023-05-18T08:13:45.766Z,103004.44
2023-05-18T08:16:12.671Z,102990.69
2023-05-18T08:18:40.100Z,102994.69
2023-05-18T08:21:09.527Z,102991.47
2023-05-18T08:23:36.824Z,103000.38
2023-05-18T08:26:03.780Z,102989.78
2023-05-18T08:28:31.115Z,102989.22
2023-05-18T08:30:58.330Z,102987.34
2023-05-18T08:33:24.874Z,102987.25
2023-05-18T08:35:51.865Z,102985.47
2023-05-18T08:38:18.475Z,102988.97
2023-05-18T08:41:08.230Z,102988.00
2023-05-18T08:43:41.648Z,102980.91
2023-05-18T08:46:19.091Z,102984.50
2023-05-18T08:48:47.117Z,102991.56
2023-05-18T08:51:19.753Z,102986.47
2023-05-18T08:53:52.680Z,102986.59
2023-05-18T08:56:22.923Z,102982.66
2023-05-18T08:58:53.803Z,102998.28
2023-05-18T09:01:20.596Z,102984.13
2023-05-18T09:03:49.343Z,102974.53
2023-05-18T09:06:15.985Z,102984.28
2023-05-18T09:08:43.840Z,102988.00
2023-05-18T09:11:12.671Z,102982.03
2023-05-18T09:13:39.369Z,102974.34
2023-05-18T09:16:08.086Z,102965.84
2023-05-18T09:18:34.672Z,102964.22
2023-05-18T09:21:01.289Z,102961.78
2023-05-18T09:23:29.013Z,102964.75
2023-05-18T09:25:56.277Z,102960.28
2023-05-18T09:28:35.200Z,102961.31
2023-05-18T09:31:01.739Z,102955.38
2023-05-18T09:33:34.210Z,102953.66
2023-05-18T09:36:01.218Z,102951.16
2023-05-18T09:38:28.230Z,102945.91
2023-05-18T09:40:55.464Z,102939.09
2023-05-18T09:43:22.160Z,102944.56
2023-05-18T09:45:52.726Z,102939.25
2023-05-18T09:48:19.335Z,102939.50
2023-05-18T09:50:46.275Z,102946.97
2023-05-18T09:53:13.894Z,102948.91
2023-05-18T09:55:46.532Z,102948.53
2023-05-18T09:58:13.161Z,102939.81
2023-05-18T10:00:44.609Z,102929.16
2023-05-18T10:03:18.983Z,102949.25
2023-05-18T10:05:45.915Z,102941.41
2023-05-18T10:08:14.400Z,102931.72
2023-05-18T10:10:46.975Z,102936.31
2023-05-18T10:13:18.125Z,102941.75
2023-05-18T10:15:54.322Z,102938.53
2023-05-18T10:18:29.590Z,102936.97
2023-05-18T10:21:00.027Z,102931.66
2023-05-18T10:23:30.366Z,102923.81
2023-05-18T10:25:57.585Z,102923.81
2023-05-18T10:28:30.298Z,102926.53
2023-05-18T10:31:01.073Z,102918.59
2023-05-18T10:33:30.034Z,102920.38
2023-05-18T10:35:58.011Z,102915.97
2023-05-18T10:38:27.503Z,102912.69
2023-05-18T10:40:56.493Z,102918.25
2023-05-18T10:43:27.371Z,102917.53
2023-05-18T10:46:00.007Z,102921.19
2023-05-18T10:48:28.968Z,102913.31
2023-05-18T10:50:57.631Z,102912.56
2023-05-18T10:53:34.748Z,102910.94
2023-05-18T10:56:01.774Z,102909.25
2023-05-18T10:58:30.416Z,102902.16
2023-05-18T11:00:59.899Z,102910.97
2023-05-18T11:03:27.488Z,102903.06
2023-05-18T11:06:05.189Z,102904.03
2023-05-18T11:08:32.169Z,102907.69
2023-05-18T11:11:04.307Z,102903.38
2023-05-18T11:13:32.500Z,102898.13
2023-05-18T11:16:00.596Z,102882.16
2023-05-18T11:18:37.641Z,102907.97
2023-05-18T11:21:04.637Z,102896.47
2023-05-18T11:23:34.613Z,102890.25
2023-05-18T11:26:04.609Z,102899.09
2023-05-18T11:28:31.595Z,102901.75
2023-05-18T11:30:58.368Z,102894.66
2023-05-18T11:33:29.803Z,102880.44
2023-05-18T11:36:02.786Z,102886.69
2023-05-18T11:38:55.476Z,102873.34
2023-05-18T11:41:35.576Z,102871.56
2023-05-18T11:44:16.766Z,102871.53
2023-05-18T11:46:58.888Z,102867.06
2023-05-18T11:49:30.050Z,102871.53
2023-05-18T11:52:04.577Z,102876.00
2023-05-18T11:54:46.876Z,102868.00
2023-05-18T11:57:15.456Z,102865.38
2023-05-18T11:59:55.795Z,102867.13
2023-05-18T12:02:33.920Z,102868.91
2023-05-18T12:05:02.884Z,102861.81
2023-05-18T12:07:32.256Z,102852.03
2023-05-18T12:10:01.155Z,102850.25
2023-05-18T12:12:28.467Z,102843.13
2023-05-18T12:14:59.645Z,102850.25
2023-05-18T12:17:43.117Z,102849.38
2023-05-18T12:20:15.488Z,102844.91
2023-05-18T12:22:44.191Z,102834.25
2023-05-18T12:25:11.456Z,102836.91
2023-05-18T12:27:49.927Z,102835.16
2023-05-18T12:30:20.572Z,102834.25
2023-05-18T12:32:55.933Z,102827.13
2023-05-18T12:35:26.806Z,102830.69
2023-05-18T12:37:58.124Z,102834.22
2023-05-18T12:40:24.891Z,102828.84
2023-05-18T12:43:01.179Z,102820.84
2023-05-18T12:45:33.662Z,102820.84
2023-05-18T12:48:08.388Z,102819.97
2023-05-18T12:50:36.994Z,102808.41
2023-05-18T12:53:03.481Z,102810.22
2023-05-18T12:55:31.059Z,102820.00
2023-05-18T12:58:15.813Z,102811.13
2023-05-18T13:00:47.523Z,102812.00
2023-05-18T13:03:16.322Z,102812.00
2023-05-18T13:05:47.759Z,102804.91
2023-05-18T13:08:22.343Z,102800.47
2023-05-18T13:10:58.145Z,102810.25
2023-05-18T13:13:28.210Z,102815.56
2023-05-18T13:15:54.700Z,102811.13
2023-05-18T13:18:24.400Z,102808.44
2023-05-18T13:20:53.394Z,102804.91
2023-05-18T13:23:22.042Z,102800.47
2023-05-18T13:25:49.059Z,102800.44
2023-05-18T13:28:18.013Z,102806.66
2023-05-18T13:30:45.661Z,102800.44
2023-05-18T13:33:12.347Z,102806.69
2023-05-18T13:35:42.280Z,102804.00
2023-05-18T13:38:13.287Z,102789.75
2023-05-18T13:40:41.401Z,102796.00
2023-05-18T13:43:09.148Z,102791.53
2023-05-18T13:45:37.947Z,102787.97
2023-05-18T13:48:10.097Z,102788.88
2023-05-18T13:50:37.248Z,102785.34
2023-05-18T13:53:04.023Z,102783.56
2023-05-18T13:55:30.708Z,102777.31
2023-05-18T13:57:57.424Z,102775.56
2023-05-18T14:00:24.051Z,102778.22
2023-05-18T14:02:51.147Z,102777.31
2023-05-18T14:05:18.024Z,102779.09
2023-05-18T14:07:45.294Z,102778.19
2023-05-18T14:10:13.163Z,102771.03
2023-05-18T14:12:42.374Z,102781.69
2023-05-18T14:15:10.140Z,102768.34
2023-05-18T14:17:36.697Z,102762.06
2023-05-18T14:20:05.379Z,102763.84
2023-05-18T14:22:32.578Z,102751.41
2023-05-18T14:24:59.170Z,102750.47
2023-05-18T14:27:25.810Z,102754.06
2023-05-18T14:29:52.252Z,102751.41
2023-05-18T14:32:22.539Z,102758.50
2023-05-18T14:34:51.951Z,102752.31
2023-05-18T14:37:19.177Z,102754.09
2023-05-18T14:39:45.876Z,102743.44
2023-05-18T14:42:12.479Z,102750.50
2023-05-18T14:44:39.033Z,102744.31
2023-05-18T14:47:05.893Z,102735.44
2023-05-18T14:49:32.473Z,102741.66
2023-05-18T14:51:58.999Z,102738.06
2023-05-18T14:54:25.752Z,102738.97
2023-05-18T14:56:52.365Z,102748.75
2023-05-18T14:59:18.866Z,102743.38
2023-05-18T15:01:45.461Z,102735.38
2023-05-18T15:04:12.119Z,102733.59
2023-05-18T15:06:38.596Z,102736.28
2023-05-18T15:09:06.560Z,102731.78
2023-05-18T15:11:33.039Z,102732.66
2023-05-18T15:13:59.519Z,102719.31
2023-05-18T15:16:26.040Z,102722.84
2023-05-18T15:18:52.590Z,102719.31
2023-05-18T15:21:19.029Z,102718.44
2023-05-18T15:23:45.659Z,102714.00
2023-05-18T15:26:12.473Z,102716.69
2023-05-18T15:28:38.913Z,102714.91
2023-05-18T15:31:05.547Z,102709.56
2023-05-18T15:33:31.993Z,102713.09
2023-05-18T15:35:58.516Z,102710.44
2023-05-18T15:38:25.425Z,102708.69
2023-05-18T15:40:52.120Z,102706.88
2023-05-18T15:43:18.676Z,102708.56
2023-05-18T15:45:45.168Z,102713.81
2023-05-18T15:48:11.863Z,102703.97
2023-05-18T15:50:38.417Z,102701.25
2023-05-18T15:53:04.938Z,102694.16
2023-05-18T15:55:31.692Z,102701.28
2023-05-18T15:57:58.173Z,102679.88
2023-05-18T16:00:27.176Z,102699.44
2023-05-18T16:02:53.739Z,102702.19
2023-05-18T16:05:20.773Z,102700.41
2023-05-18T16:07:47.414Z,102701.31
2023-05-18T16:10:14.498Z,102691.53
2023-05-18T16:12:41.118Z,102693.34
2023-05-18T16:15:08.920Z,102691.59
2023-05-18T16:17:35.449Z,102692.47
2023-05-18T16:20:03.743Z,102688.94
2023-05-18T16:22:30.751Z,102685.38
2023-05-18T16:24:59.086Z,102684.50
2023-05-18T16:27:25.902Z,102688.91
2023-05-18T16:29:52.689Z,102695.16
2023-05-18T16:32:19.207Z,102682.75
2023-05-18T16:34:45.967Z,102683.66
2023-05-18T16:37:12.736Z,102686.34
2023-05-18T16:39:39.315Z,102685.44
2023-05-18T16:42:09.475Z,102686.38
2023-05-18T16:44:36.729Z,102675.72
2023-05-18T16:47:05.397Z,102681.94
2023-05-18T16:49:31.962Z,102677.47
2023-05-18T16:51:58.441Z,102671.28
2023-05-18T16:54:24.941Z,102670.38
2023-05-18T16:56:51.942Z,102673.03
2023-05-18T16:59:22.804Z,102663.28
2023-05-18T17:01:49.199Z,102673.91
2023-05-18T17:04:15.981Z,102672.97
2023-05-18T17:06:42.605Z,102672.09
2023-05-18T17:09:09.268Z,102665.88
2023-05-18T17:11:35.695Z,102662.28
2023-05-18T17:14:03.051Z,102664.94
2023-05-18T17:16:30.206Z,102676.50
2023-05-18T17:18:57.730Z,102667.63
2023-05-18T17:21:26.532Z,102674.72
2023-05-18T17:23:54.615Z,102671.19
2023-05-18T17:26:21.410Z,102672.94
2023-05-18T17:28:47.828Z,102683.53
2023-05-18T17:31:16.882Z,102681.78
2023-05-18T17:33:47.147Z,102670.22
2023-05-18T17:36:18.393Z,102675.59
2023-05-18T17:38:45.122Z,102670.31
2023-05-18T17:41:11.667Z,102668.53
2023-05-18T17:43:38.112Z,102662.28
2023-05-18T17:46:05.062Z,102663.19
2023-05-18T17:48:31.732Z,102659.63
2023-05-18T17:50:58.137Z,102666.69
2023-05-18T17:53:24.687Z,102665.81
2023-05-18T17:55:51.803Z,102667.56
2023-05-18T17:58:18.236Z,102668.44
2023-05-18T18:00:44.808Z,102669.28
2023-05-18T18:03:11.541Z,102669.25
2023-05-18T18:05:38.044Z,102671.91
2023-05-18T18:08:04.598Z,102661.28
2023-05-18T18:10:31.902Z,102671.09
2023-05-18T18:12:58.860Z,102664.84
2023-05-18T18:15:27.470Z,102671.03
2023-05-18T18:17:54.452Z,102672.81
2023-05-18T18:20:21.567Z,102670.09
2023-05-18T18:22:48.121Z,102670.91
2023-05-18T18:25:14.565Z,102670.91
2023-05-18T18:27:41.099Z,102665.56
2023-05-18T18:30:07.983Z,102677.97
2023-05-18T18:32:34.549Z,102669.03
2023-05-18T18:35:00.998Z,102680.56
2023-05-18T18:37:28.400Z,102681.38
2023-05-18T18:39:54.869Z,102677.75
2023-05-18T18:42:24.386Z,102672.44
2023-05-18T18:44:56.648Z,102679.47
2023-05-18T18:47:23.717Z,102683.03
2023-05-18T18:49:50.437Z,102677.69
2023-05-18T18:52:17.835Z,102686.50
2023-05-18T18:54:45.128Z,102684.69
2023-05-18T18:57:12.130Z,102678.44
2023-05-18T18:59:39.378Z,102674.81
2023-05-18T19:02:06.184Z,102682.81
2023-05-18T19:04:32.815Z,102685.44
2023-05-18T19:07:02.756Z,102687.19
2023-05-18T19:09:32.832Z,102684.47
2023-05-18T19:12:02.157Z,102686.22
2023-05-18T19:14:28.643Z,102687.94
2023-05-18T19:16:55.157Z,102694.09
2023-05-18T19:19:21.707Z,102692.25
2023-05-18T19:21:48.236Z,102693.97
2023-05-18T19:24:15.774Z,102687.75
2023-05-18T19:26:42.198Z,102690.38
2023-05-18T19:29:08.716Z,102694.72
2023-05-18T19:31:41.280Z,102696.41
2023-05-18T19:34:07.726Z,102703.47
2023-05-18T19:36:35.689Z,102703.41
2023-05-18T19:39:02.171Z,102706.88
2023-05-18T19:41:28.667Z,102710.38
2023-05-18T19:43:58.972Z,102704.94
2023-05-18T19:46:25.745Z,102713.72
2023-05-18T19:48:56.474Z,102715.44
2023-05-18T19:51:23.613Z,102711.78
2023-05-18T19:53:50.511Z,102719.75
2023-05-18T19:56:17.098Z,102727.63
2023-05-18T19:58:47.552Z,102717.78
2023-05-18T20:01:14.485Z,102714.16
2023-05-18T20:03:43.550Z,102723.81
2023-05-18T20:06:11.335Z,102728.13
2023-05-18T20:08:37.978Z,102731.56
2023-05-18T20:11:05.854Z,102735.91
2023-05-18T20:13:32.312Z,102734.97
2023-05-18T20:15:59.088Z,102737.59
2023-05-18T20:18:29.068Z,102739.31
2023-05-18T20:20:56.267Z,102744.56
2023-05-18T20:23:22.878Z,102741.03
2023-05-18T20:25:49.529Z,102747.16
2023-05-18T20:28:16.260Z,102744.44
2023-05-18T20:30:43.009Z,102746.09
2023-05-18T20:33:10.122Z,102744.16
2023-05-18T20:35:39.697Z,102745.88
2023-05-18T20:38:07.301Z,102744.91
2023-05-18T20:40:37.854Z,102746.56
2023-05-18T20:43:06.477Z,102755.34
2023-05-18T20:45:41.347Z,102749.97
2023-05-18T20:48:08.944Z,102756.09
2023-05-18T20:50:35.585Z,102757.78
2023-05-18T20:53:02.037Z,102759.53
2023-05-18T20:55:29.227Z,102757.69
2023-05-18T20:57:55.643Z,102768.25
2023-05-18T21:00:22.048Z,102767.25
2023-05-18T21:02:48.806Z,102768.91
2023-05-18T21:05:16.697Z,102769.72
2023-05-18T21:07:43.717Z,102772.13
2023-05-18T21:10:11.201Z,102768.53
2023-05-18T21:12:38.084Z,102775.50
2023-05-18T21:15:05.082Z,102777.22
2023-05-18T21:17:31.950Z,102782.41
2023-05-18T21:19:58.914Z,102783.22
2023-05-18T21:22:25.412Z,102784.09
2023-05-18T21:24:51.888Z,102783.97
2023-05-18T21:27:18.428Z,102791.88
2023-05-18T21:29:44.830Z,102790.97
2023-05-18T21:32:11.432Z,102783.75
2023-05-18T21:34:37.981Z,102785.34
2023-05-18T21:37:04.917Z,102784.28
2023-05-18T21:39:31.390Z,102785.09
2023-05-18T21:41:57.816Z,102792.06
2023-05-18T21:44:24.362Z,102774.13
2023-05-18T21:46:55.181Z,102791.97
2023-05-18T21:49:21.706Z,102789.25
2023-05-18T21:51:48.150Z,102779.38
2023-05-18T21:54:14.641Z,102781.03
2023-05-18T21:56:42.293Z,102784.50
2023-05-18T21:59:08.756Z,102784.44
2023-05-18T22:01:38.305Z,102787.84
2023-05-18T22:04:04.783Z,102785.13
2023-05-18T22:06:31.300Z,102784.06
2023-05-18T22:08:57.822Z,102783.06
2023-05-18T22:11:24.618Z,102782.97
2023-05-18T22:13:51.397Z,102789.94
2023-05-18T22:16:17.967Z,102789.78
2023-05-18T22:18:44.602Z,102785.28
2023-05-18T22:21:11.280Z,102785.91
2023-05-18T22:23:39.114Z,102790.28
2023-05-18T22:26:05.742Z,102787.56
2023-05-18T22:28:32.204Z,102785.69
2023-05-18T22:30:58.639Z,102789.06
2023-05-18T22:33:25.535Z,102792.47
2023-05-18T22:35:51.973Z,102791.56
2023-05-18T22:38:18.441Z,102795.84
2023-05-18T22:40:45.434Z,102796.72
2023-05-18T22:43:11.967Z,102788.72
2023-05-18T22:45:38.381Z,102786.81
2023-05-18T22:48:05.094Z,102789.22
2023-05-18T22:50:31.822Z,102795.22
2023-05-18T22:52:58.702Z,102794.22
2023-05-18T22:55:25.154Z,102797.72
2023-05-18T22:57:51.700Z,102801.09
2023-05-18T23:00:18.295Z,102792.16
2023-05-18T23:02:44.798Z,102800.78
2023-05-18T23:05:11.390Z,102797.09
2023-05-18T23:07:38.278Z,102805.00
2023-05-18T23:10:05.919Z,102803.88
2023-05-18T23:12:33.144Z,102802.94
2023-05-18T23:15:04.114Z,102802.78
2023-05-18T23:17:32.234Z,102801.81
2023-05-18T23:20:06.864Z,102799.03
2023-05-18T23:22:35.577Z,102794.63
2023-05-18T23:25:04.636Z,102798.09
2023-05-18T23:27:31.313Z,102792.69
2023-05-18T23:29:58.904Z,102792.47
2023-05-18T23:32:26.251Z,102802.16
2023-05-18T23:34:53.063Z,102807.34
2023-05-18T23:37:21.437Z,102791.41
2023-05-18T23:39:51.950Z,102807.25
2023-05-18T23:42:25.115Z,102802.66
2023-05-18T23:44:51.975Z,102806.94
2023-05-18T23:47:20.061Z,102802.53
2023-05-18T23:49:47.768Z,102804.28
2023-05-18T23:52:15.674Z,102803.22
2023-05-18T23:54:44.137Z,102804.84
2023-05-18T23:57:11.273Z,102803.97
2023-05-18T23:59:38.046Z,102786.13
